sensor_id;sensor_type;location;lat;lon;timestamp;temperature;humidity
29775;DHT22;16676;51.202;6.774;2022-08-19T00:01:26;26.30;56.70
29775;DHT22;16676;51.202;6.774;2022-08-19T00:05:29;26.30;56.90
29775;DHT22;16676;51.202;6.774;2022-08-19T00:09:32;26.20;56.90
29775;DHT22;16676;51.202;6.774;2022-08-19T00:13:35;26.20;57.00
29775;DHT22;16676;51.202;6.774;2022-08-19T00:17:38;26.30;56.90
29775;DHT22;16676;51.202;6.774;2022-08-19T00:21:40;26.30;56.90
29775;DHT22;16676;51.202;6.774;2022-08-19T00:25:42;26.30;56.70
29775;DHT22;16676;51.202;6.774;2022-08-19T00:29:46;26.30;56.90
29775;DHT22;16676;51.202;6.774;2022-08-19T00:33:47;26.20;57.30
29775;DHT22;16676;51.202;6.774;2022-08-19T00:37:50;26.20;57.50
29775;DHT22;16676;51.202;6.774;2022-08-19T00:41:52;26.20;57.70
29775;DHT22;16676;51.202;6.774;2022-08-19T00:45:56;26.30;57.40
29775;DHT22;16676;51.202;6.774;2022-08-19T00:49:58;26.30;57.20
29775;DHT22;16676;51.202;6.774;2022-08-19T00:54:02;26.20;57.30
29775;DHT22;16676;51.202;6.774;2022-08-19T00:58:07;26.10;57.80
29775;DHT22;16676;51.202;6.774;2022-08-19T01:02:11;26.20;57.60
29775;DHT22;16676;51.202;6.774;2022-08-19T01:06:13;26.20;57.20
29775;DHT22;16676;51.202;6.774;2022-08-19T01:10:17;26.30;57.20
29775;DHT22;16676;51.202;6.774;2022-08-19T01:14:19;26.30;57.20
29775;DHT22;16676;51.202;6.774;2022-08-19T01:18:23;26.20;57.50
29775;DHT22;16676;51.202;6.774;2022-08-19T01:22:30;26.10;58.30
29775;DHT22;16676;51.202;6.774;2022-08-19T01:26:38;26.10;57.70
29775;DHT22;16676;51.202;6.774;2022-08-19T01:30:41;26.00;57.90
29775;DHT22;16676;51.202;6.774;2022-08-19T01:34:44;26.00;58.20
29775;DHT22;16676;51.202;6.774;2022-08-19T01:38:48;26.00;58.10
29775;DHT22;16676;51.202;6.774;2022-08-19T01:42:51;26.00;57.90
29775;DHT22;16676;51.202;6.774;2022-08-19T01:46:54;25.90;58.10
29775;DHT22;16676;51.202;6.774;2022-08-19T01:50:56;25.80;58.10
29775;DHT22;16676;51.202;6.774;2022-08-19T01:54:59;25.80;58.10
29775;DHT22;16676;51.202;6.774;2022-08-19T01:59:04;25.80;58.30
29775;DHT22;16676;51.202;6.774;2022-08-19T02:03:06;25.70;58.60
29775;DHT22;16676;51.202;6.774;2022-08-19T02:07:09;25.70;59.10
29775;DHT22;16676;51.202;6.774;2022-08-19T02:11:18;25.80;58.20
29775;DHT22;16676;51.202;6.774;2022-08-19T02:15:21;25.90;57.50
29775;DHT22;16676;51.202;6.774;2022-08-19T02:19:23;25.90;57.40
29775;DHT22;16676;51.202;6.774;2022-08-19T02:23:25;26.00;57.20
29775;DHT22;16676;51.202;6.774;2022-08-19T02:27:29;26.00;56.90
29775;DHT22;16676;51.202;6.774;2022-08-19T02:31:31;26.10;56.90
29775;DHT22;16676;51.202;6.774;2022-08-19T02:35:33;26.00;56.80
29775;DHT22;16676;51.202;6.774;2022-08-19T02:39:35;26.00;57.10
29775;DHT22;16676;51.202;6.774;2022-08-19T02:43:38;26.00;57.80
29775;DHT22;16676;51.202;6.774;2022-08-19T02:47:41;25.90;58.10
29775;DHT22;16676;51.202;6.774;2022-08-19T02:51:45;25.90;58.30
29775;DHT22;16676;51.202;6.774;2022-08-19T02:55:47;25.90;58.00
29775;DHT22;16676;51.202;6.774;2022-08-19T02:59:51;25.90;58.30
29775;DHT22;16676;51.202;6.774;2022-08-19T03:03:53;25.90;58.10
29775;DHT22;16676;51.202;6.774;2022-08-19T03:07:55;25.90;57.80
29775;DHT22;16676;51.202;6.774;2022-08-19T03:11:57;25.90;57.80
29775;DHT22;16676;51.202;6.774;2022-08-19T03:16:04;25.90;58.00
29775;DHT22;16676;51.202;6.774;2022-08-19T03:20:07;25.90;58.20
29775;DHT22;16676;51.202;6.774;2022-08-19T03:24:10;25.90;58.10
29775;DHT22;16676;51.202;6.774;2022-08-19T03:28:13;25.90;58.10
29775;DHT22;16676;51.202;6.774;2022-08-19T03:32:17;25.90;57.90
29775;DHT22;16676;51.202;6.774;2022-08-19T03:36:21;25.90;58.10
29775;DHT22;16676;51.202;6.774;2022-08-19T03:40:24;25.80;57.90
29775;DHT22;16676;51.202;6.774;2022-08-19T03:44:26;25.90;57.90
29775;DHT22;16676;51.202;6.774;2022-08-19T03:48:29;25.90;58.00
29775;DHT22;16676;51.202;6.774;2022-08-19T03:52:31;25.90;58.00
29775;DHT22;16676;51.202;6.774;2022-08-19T03:56:34;25.90;57.90
29775;DHT22;16676;51.202;6.774;2022-08-19T04:00:36;25.80;57.90
29775;DHT22;16676;51.202;6.774;2022-08-19T04:04:42;25.80;58.00
29775;DHT22;16676;51.202;6.774;2022-08-19T04:08:45;25.80;57.90
29775;DHT22;16676;51.202;6.774;2022-08-19T04:12:47;25.90;57.90
29775;DHT22;16676;51.202;6.774;2022-08-19T04:16:50;25.80;57.80
29775;DHT22;16676;51.202;6.774;2022-08-19T04:20:53;25.90;57.60
29775;DHT22;16676;51.202;6.774;2022-08-19T04:24:55;25.90;57.60
29775;DHT22;16676;51.202;6.774;2022-08-19T04:28:57;25.90;57.60
29775;DHT22;16676;51.202;6.774;2022-08-19T04:32:59;25.90;57.60
29775;DHT22;16676;51.202;6.774;2022-08-19T04:37:05;25.90;57.50
29775;DHT22;16676;51.202;6.774;2022-08-19T04:41:12;25.90;57.30
29775;DHT22;16676;51.202;6.774;2022-08-19T04:45:31;25.90;58.20
29775;DHT22;16676;51.202;6.774;2022-08-19T04:49:33;25.70;57.70
29775;DHT22;16676;51.202;6.774;2022-08-19T04:53:38;25.50;58.40
29775;DHT22;16676;51.202;6.774;2022-08-19T04:57:40;25.50;58.90
29775;DHT22;16676;51.202;6.774;2022-08-19T05:01:42;25.30;59.10
29775;DHT22;16676;51.202;6.774;2022-08-19T05:05:49;25.30;59.30
29775;DHT22;16676;51.202;6.774;2022-08-19T05:09:53;25.20;59.50
29775;DHT22;16676;51.202;6.774;2022-08-19T05:13:56;25.20;59.80
29775;DHT22;16676;51.202;6.774;2022-08-19T05:17:58;25.10;59.70
29775;DHT22;16676;51.202;6.774;2022-08-19T05:22:18;25.10;60.00
29775;DHT22;16676;51.202;6.774;2022-08-19T05:26:38;25.10;60.10
29775;DHT22;16676;51.202;6.774;2022-08-19T05:30:40;25.00;60.40
29775;DHT22;16676;51.202;6.774;2022-08-19T05:34:43;24.90;60.80
29775;DHT22;16676;51.202;6.774;2022-08-19T05:38:45;24.90;61.00
29775;DHT22;16676;51.202;6.774;2022-08-19T05:42:49;24.90;61.10
29775;DHT22;16676;51.202;6.774;2022-08-19T05:46:52;24.90;61.60
29775;DHT22;16676;51.202;6.774;2022-08-19T05:50:54;24.90;62.50
29775;DHT22;16676;51.202;6.774;2022-08-19T05:54:57;25.00;61.20
29775;DHT22;16676;51.202;6.774;2022-08-19T05:59:00;25.00;61.20
29775;DHT22;16676;51.202;6.774;2022-08-19T06:03:02;25.10;60.90
29775;DHT22;16676;51.202;6.774;2022-08-19T06:07:04;25.10;60.60
29775;DHT22;16676;51.202;6.774;2022-08-19T06:11:15;25.20;61.20
29775;DHT22;16676;51.202;6.774;2022-08-19T06:15:18;25.10;61.20
29775;DHT22;16676;51.202;6.774;2022-08-19T06:19:22;25.10;62.30
29775;DHT22;16676;51.202;6.774;2022-08-19T06:23:25;25.10;61.80
29775;DHT22;16676;51.202;6.774;2022-08-19T06:27:27;25.00;62.20
29775;DHT22;16676;51.202;6.774;2022-08-19T06:31:34;25.00;62.10
29775;DHT22;16676;51.202;6.774;2022-08-19T06:35:38;25.00;62.50
29775;DHT22;16676;51.202;6.774;2022-08-19T06:39:43;24.80;62.90
29775;DHT22;16676;51.202;6.774;2022-08-19T06:43:45;24.80;62.90
29775;DHT22;16676;51.202;6.774;2022-08-19T06:47:48;24.80;64.00
29775;DHT22;16676;51.202;6.774;2022-08-19T06:51:50;24.80;63.10
29775;DHT22;16676;51.202;6.774;2022-08-19T06:55:52;24.90;63.40
29775;DHT22;16676;51.202;6.774;2022-08-19T07:00:03;24.90;63.20
29775;DHT22;16676;51.202;6.774;2022-08-19T07:04:08;24.80;63.90
29775;DHT22;16676;51.202;6.774;2022-08-19T07:08:10;24.70;64.00
29775;DHT22;16676;51.202;6.774;2022-08-19T07:12:13;24.80;63.70
29775;DHT22;16676;51.202;6.774;2022-08-19T07:16:17;24.90;62.60
29775;DHT22;16676;51.202;6.774;2022-08-19T07:20:22;24.90;63.60
29775;DHT22;16676;51.202;6.774;2022-08-19T07:24:25;24.90;63.20
29775;DHT22;16676;51.202;6.774;2022-08-19T07:28:28;24.80;64.50
29775;DHT22;16676;51.202;6.774;2022-08-19T07:32:31;24.60;65.20
29775;DHT22;16676;51.202;6.774;2022-08-19T07:36:35;24.70;65.30
29775;DHT22;16676;51.202;6.774;2022-08-19T07:40:38;24.60;66.10
29775;DHT22;16676;51.202;6.774;2022-08-19T07:44:41;24.60;66.00
29775;DHT22;16676;51.202;6.774;2022-08-19T07:48:44;24.90;65.00
29775;DHT22;16676;51.202;6.774;2022-08-19T07:52:49;24.90;63.80
29775;DHT22;16676;51.202;6.774;2022-08-19T07:56:52;25.00;64.60
29775;DHT22;16676;51.202;6.774;2022-08-19T08:00:54;25.10;64.60
29775;DHT22;16676;51.202;6.774;2022-08-19T08:04:56;24.90;64.40
29775;DHT22;16676;51.202;6.774;2022-08-19T08:09:18;25.10;64.60
29775;DHT22;16676;51.202;6.774;2022-08-19T08:13:22;25.10;63.20
29775;DHT22;16676;51.202;6.774;2022-08-19T08:17:26;25.20;63.40
29775;DHT22;16676;51.202;6.774;2022-08-19T08:21:28;25.20;64.00
29775;DHT22;16676;51.202;6.774;2022-08-19T08:25:31;25.30;63.30
29775;DHT22;16676;51.202;6.774;2022-08-19T08:29:33;25.20;63.80
29775;DHT22;16676;51.202;6.774;2022-08-19T08:33:35;25.10;64.20
29775;DHT22;16676;51.202;6.774;2022-08-19T08:37:37;25.20;64.50
29775;DHT22;16676;51.202;6.774;2022-08-19T08:41:46;25.30;64.10
29775;DHT22;16676;51.202;6.774;2022-08-19T08:45:54;25.30;64.10
29775;DHT22;16676;51.202;6.774;2022-08-19T08:50:01;25.30;63.10
29775;DHT22;16676;51.202;6.774;2022-08-19T08:54:08;25.40;62.90
29775;DHT22;16676;51.202;6.774;2022-08-19T08:58:16;25.50;62.30
29775;DHT22;16676;51.202;6.774;2022-08-19T09:02:19;25.60;61.90
29775;DHT22;16676;51.202;6.774;2022-08-19T09:06:29;25.60;61.90
29775;DHT22;16676;51.202;6.774;2022-08-19T09:10:38;25.50;62.00
29775;DHT22;16676;51.202;6.774;2022-08-19T09:14:47;25.40;60.50
29775;DHT22;16676;51.202;6.774;2022-08-19T09:18:58;25.40;60.30
29775;DHT22;16676;51.202;6.774;2022-08-19T09:23:02;25.40;60.20
29775;DHT22;16676;51.202;6.774;2022-08-19T09:27:04;25.20;59.00
29775;DHT22;16676;51.202;6.774;2022-08-19T09:31:07;25.30;59.20
29775;DHT22;16676;51.202;6.774;2022-08-19T09:35:10;25.40;58.90
29775;DHT22;16676;51.202;6.774;2022-08-19T09:39:12;25.40;58.50
29775;DHT22;16676;51.202;6.774;2022-08-19T09:43:14;25.50;58.60
29775;DHT22;16676;51.202;6.774;2022-08-19T09:47:17;25.40;58.50
29775;DHT22;16676;51.202;6.774;2022-08-19T09:51:22;25.60;58.30
29775;DHT22;16676;51.202;6.774;2022-08-19T09:55:25;25.70;58.00
29775;DHT22;16676;51.202;6.774;2022-08-19T09:59:27;25.60;57.60
29775;DHT22;16676;51.202;6.774;2022-08-19T10:03:32;25.80;57.80
29775;DHT22;16676;51.202;6.774;2022-08-19T10:07:34;25.80;57.90
29775;DHT22;16676;51.202;6.774;2022-08-19T10:11:39;26.10;58.00
29775;DHT22;16676;51.202;6.774;2022-08-19T10:15:41;26.30;57.80
29775;DHT22;16676;51.202;6.774;2022-08-19T10:19:44;26.40;57.70
29775;DHT22;16676;51.202;6.774;2022-08-19T10:23:49;26.50;57.70
29775;DHT22;16676;51.202;6.774;2022-08-19T10:27:51;26.60;57.70
29775;DHT22;16676;51.202;6.774;2022-08-19T10:31:53;26.70;57.70
29775;DHT22;16676;51.202;6.774;2022-08-19T10:36:01;26.80;57.80
29775;DHT22;16676;51.202;6.774;2022-08-19T10:40:04;26.80;57.80
29775;DHT22;16676;51.202;6.774;2022-08-19T10:44:09;26.90;57.80
29775;DHT22;16676;51.202;6.774;2022-08-19T10:48:11;27.00;57.80
29775;DHT22;16676;51.202;6.774;2022-08-19T10:52:14;27.00;57.70
29775;DHT22;16676;51.202;6.774;2022-08-19T10:56:34;27.10;57.80
29775;DHT22;16676;51.202;6.774;2022-08-19T11:00:58;27.20;57.90
29775;DHT22;16676;51.202;6.774;2022-08-19T11:05:00;27.20;58.40
29775;DHT22;16676;51.202;6.774;2022-08-19T11:09:04;27.30;57.10
29775;DHT22;16676;51.202;6.774;2022-08-19T11:13:06;27.30;56.60
29775;DHT22;16676;51.202;6.774;2022-08-19T11:17:08;27.30;56.30
29775;DHT22;16676;51.202;6.774;2022-08-19T11:21:13;27.40;56.00
29775;DHT22;16676;51.202;6.774;2022-08-19T11:25:19;27.50;55.80
29775;DHT22;16676;51.202;6.774;2022-08-19T11:29:21;27.50;55.80
29775;DHT22;16676;51.202;6.774;2022-08-19T11:33:26;27.50;54.80
29775;DHT22;16676;51.202;6.774;2022-08-19T11:37:28;27.50;54.30
29775;DHT22;16676;51.202;6.774;2022-08-19T11:41:31;27.40;53.50
29775;DHT22;16676;51.202;6.774;2022-08-19T11:45:34;27.40;54.40
29775;DHT22;16676;51.202;6.774;2022-08-19T11:49:35;27.40;53.70
29775;DHT22;16676;51.202;6.774;2022-08-19T11:53:38;27.40;53.20
29775;DHT22;16676;51.202;6.774;2022-08-19T11:57:42;27.50;52.50
29775;DHT22;16676;51.202;6.774;2022-08-19T12:01:44;27.50;51.80
29775;DHT22;16676;51.202;6.774;2022-08-19T12:05:46;27.50;51.40
29775;DHT22;16676;51.202;6.774;2022-08-19T12:09:48;27.60;52.80
29775;DHT22;16676;51.202;6.774;2022-08-19T12:13:51;27.70;53.10
29775;DHT22;16676;51.202;6.774;2022-08-19T12:17:54;27.70;52.60
29775;DHT22;16676;51.202;6.774;2022-08-19T12:21:59;27.70;52.10
29775;DHT22;16676;51.202;6.774;2022-08-19T12:26:01;27.70;51.60
29775;DHT22;16676;51.202;6.774;2022-08-19T12:30:07;27.70;51.40
29775;DHT22;16676;51.202;6.774;2022-08-19T12:34:09;27.70;51.40
29775;DHT22;16676;51.202;6.774;2022-08-19T12:38:11;27.70;49.30
29775;DHT22;16676;51.202;6.774;2022-08-19T12:42:14;27.70;49.50
29775;DHT22;16676;51.202;6.774;2022-08-19T12:46:18;27.80;49.20
29775;DHT22;16676;51.202;6.774;2022-08-19T12:50:20;27.90;49.60
29775;DHT22;16676;51.202;6.774;2022-08-19T12:54:22;27.90;49.50
29775;DHT22;16676;51.202;6.774;2022-08-19T12:58:24;27.90;51.30
29775;DHT22;16676;51.202;6.774;2022-08-19T13:02:28;27.90;50.70
29775;DHT22;16676;51.202;6.774;2022-08-19T13:06:32;27.80;50.30
29775;DHT22;16676;51.202;6.774;2022-08-19T13:10:35;27.80;50.30
29775;DHT22;16676;51.202;6.774;2022-08-19T13:14:37;27.80;49.80
29775;DHT22;16676;51.202;6.774;2022-08-19T13:18:43;27.80;49.70
29775;DHT22;16676;51.202;6.774;2022-08-19T13:22:47;27.80;49.40
29775;DHT22;16676;51.202;6.774;2022-08-19T13:26:49;27.70;48.70
29775;DHT22;16676;51.202;6.774;2022-08-19T13:30:51;27.80;49.20
29775;DHT22;16676;51.202;6.774;2022-08-19T13:35:12;27.80;48.70
29775;DHT22;16676;51.202;6.774;2022-08-19T13:39:14;27.70;47.80
29775;DHT22;16676;51.202;6.774;2022-08-19T13:43:16;27.80;47.90
29775;DHT22;16676;51.202;6.774;2022-08-19T13:47:18;27.90;46.90
29775;DHT22;16676;51.202;6.774;2022-08-19T13:51:22;27.90;48.00
29775;DHT22;16676;51.202;6.774;2022-08-19T13:55:24;27.90;48.80
29775;DHT22;16676;51.202;6.774;2022-08-19T13:59:27;27.90;49.00
29775;DHT22;16676;51.202;6.774;2022-08-19T14:03:29;27.90;48.70
29775;DHT22;16676;51.202;6.774;2022-08-19T14:07:33;27.90;48.60
29775;DHT22;16676;51.202;6.774;2022-08-19T14:11:34;27.90;48.30
29775;DHT22;16676;51.202;6.774;2022-08-19T14:15:37;27.90;47.50
29775;DHT22;16676;51.202;6.774;2022-08-19T14:19:40;27.90;47.70
29775;DHT22;16676;51.202;6.774;2022-08-19T14:23:43;27.90;49.00
29775;DHT22;16676;51.202;6.774;2022-08-19T14:27:47;28.00;48.70
29775;DHT22;16676;51.202;6.774;2022-08-19T14:31:49;28.20;48.70
29775;DHT22;16676;51.202;6.774;2022-08-19T14:35:51;28.30;48.50
29775;DHT22;16676;51.202;6.774;2022-08-19T14:39:54;28.40;48.30
29775;DHT22;16676;51.202;6.774;2022-08-19T14:43:56;28.50;49.00
29775;DHT22;16676;51.202;6.774;2022-08-19T14:47:59;28.50;49.00
29775;DHT22;16676;51.202;6.774;2022-08-19T14:52:01;28.60;48.60
29775;DHT22;16676;51.202;6.774;2022-08-19T14:56:09;28.60;49.00
29775;DHT22;16676;51.202;6.774;2022-08-19T15:00:12;28.70;49.50
29775;DHT22;16676;51.202;6.774;2022-08-19T15:04:14;28.70;49.40
29775;DHT22;16676;51.202;6.774;2022-08-19T15:08:16;28.70;49.70
29775;DHT22;16676;51.202;6.774;2022-08-19T15:12:19;28.70;49.40
29775;DHT22;16676;51.202;6.774;2022-08-19T15:16:23;28.80;49.00
29775;DHT22;16676;51.202;6.774;2022-08-19T15:20:26;28.80;48.20
29775;DHT22;16676;51.202;6.774;2022-08-19T15:24:28;28.80;48.20
29775;DHT22;16676;51.202;6.774;2022-08-19T15:28:31;28.90;49.30
29775;DHT22;16676;51.202;6.774;2022-08-19T15:32:32;28.90;50.00
29775;DHT22;16676;51.202;6.774;2022-08-19T15:36:36;28.90;49.40
29775;DHT22;16676;51.202;6.774;2022-08-19T15:40:38;28.90;48.10
29775;DHT22;16676;51.202;6.774;2022-08-19T15:44:42;28.80;47.40
29775;DHT22;16676;51.202;6.774;2022-08-19T15:48:44;28.70;47.10
29775;DHT22;16676;51.202;6.774;2022-08-19T15:52:48;28.60;47.20
29775;DHT22;16676;51.202;6.774;2022-08-19T15:56:51;28.40;47.20
29775;DHT22;16676;51.202;6.774;2022-08-19T16:01:12;28.30;47.30
29775;DHT22;16676;51.202;6.774;2022-08-19T16:05:31;28.30;47.70
29775;DHT22;16676;51.202;6.774;2022-08-19T16:09:50;28.30;48.00
29775;DHT22;16676;51.202;6.774;2022-08-19T16:13:53;28.30;48.00
29775;DHT22;16676;51.202;6.774;2022-08-19T16:17:56;28.30;48.40
29775;DHT22;16676;51.202;6.774;2022-08-19T16:22:01;28.30;48.70
29775;DHT22;16676;51.202;6.774;2022-08-19T16:26:03;28.20;48.90
29775;DHT22;16676;51.202;6.774;2022-08-19T16:30:06;28.30;49.30
29775;DHT22;16676;51.202;6.774;2022-08-19T16:34:10;28.20;49.40
29775;DHT22;16676;51.202;6.774;2022-08-19T16:38:12;28.20;49.50
29775;DHT22;16676;51.202;6.774;2022-08-19T16:42:14;28.20;49.60
29775;DHT22;16676;51.202;6.774;2022-08-19T16:46:16;28.20;49.60
29775;DHT22;16676;51.202;6.774;2022-08-19T16:50:20;28.10;49.70
29775;DHT22;16676;51.202;6.774;2022-08-19T16:54:21;28.20;51.10
29775;DHT22;16676;51.202;6.774;2022-08-19T16:58:25;28.30;51.60
29775;DHT22;16676;51.202;6.774;2022-08-19T17:02:27;28.30;52.30
29775;DHT22;16676;51.202;6.774;2022-08-19T17:06:30;28.40;53.10
29775;DHT22;16676;51.202;6.774;2022-08-19T17:10:33;28.50;53.00
29775;DHT22;16676;51.202;6.774;2022-08-19T17:14:37;28.50;52.10
29775;DHT22;16676;51.202;6.774;2022-08-19T17:18:39;28.60;52.50
29775;DHT22;16676;51.202;6.774;2022-08-19T17:22:42;28.60;52.90
29775;DHT22;16676;51.202;6.774;2022-08-19T17:26:46;28.70;52.60
29775;DHT22;16676;51.202;6.774;2022-08-19T17:30:48;28.70;53.10
29775;DHT22;16676;51.202;6.774;2022-08-19T17:34:50;28.70;51.70
29775;DHT22;16676;51.202;6.774;2022-08-19T17:38:56;28.70;50.80
29775;DHT22;16676;51.202;6.774;2022-08-19T17:42:58;28.60;50.60
29775;DHT22;16676;51.202;6.774;2022-08-19T17:47:00;28.50;50.70
29775;DHT22;16676;51.202;6.774;2022-08-19T17:51:13;28.40;50.90
29775;DHT22;16676;51.202;6.774;2022-08-19T17:55:16;28.40;51.00
29775;DHT22;16676;51.202;6.774;2022-08-19T17:59:18;28.40;51.40
29775;DHT22;16676;51.202;6.774;2022-08-19T18:03:20;28.40;51.80
29775;DHT22;16676;51.202;6.774;2022-08-19T18:07:22;28.40;52.70
29775;DHT22;16676;51.202;6.774;2022-08-19T18:11:25;28.30;53.40
29775;DHT22;16676;51.202;6.774;2022-08-19T18:15:27;28.30;53.50
29775;DHT22;16676;51.202;6.774;2022-08-19T18:19:29;28.10;54.30
29775;DHT22;16676;51.202;6.774;2022-08-19T18:23:31;28.10;54.80
29775;DHT22;16676;51.202;6.774;2022-08-19T18:27:35;28.00;55.40
29775;DHT22;16676;51.202;6.774;2022-08-19T18:31:37;28.00;55.10
29775;DHT22;16676;51.202;6.774;2022-08-19T18:35:40;28.00;55.30
29775;DHT22;16676;51.202;6.774;2022-08-19T18:39:45;28.00;55.10
29775;DHT22;16676;51.202;6.774;2022-08-19T18:44:05;28.00;55.00
29775;DHT22;16676;51.202;6.774;2022-08-19T18:48:25;28.00;54.80
29775;DHT22;16676;51.202;6.774;2022-08-19T18:52:44;28.00;54.60
29775;DHT22;16676;51.202;6.774;2022-08-19T18:56:47;28.00;54.60
29775;DHT22;16676;51.202;6.774;2022-08-19T19:00:50;28.00;54.30
29775;DHT22;16676;51.202;6.774;2022-08-19T19:04:56;28.00;54.90
29775;DHT22;16676;51.202;6.774;2022-08-19T19:08:57;28.00;54.30
29775;DHT22;16676;51.202;6.774;2022-08-19T19:13:00;28.00;54.10
29775;DHT22;16676;51.202;6.774;2022-08-19T19:17:06;28.00;54.00
29775;DHT22;16676;51.202;6.774;2022-08-19T19:21:08;28.00;53.90
29775;DHT22;16676;51.202;6.774;2022-08-19T19:25:10;28.00;53.80
29775;DHT22;16676;51.202;6.774;2022-08-19T19:29:12;28.10;53.80
29775;DHT22;16676;51.202;6.774;2022-08-19T19:33:15;28.10;53.90
29775;DHT22;16676;51.202;6.774;2022-08-19T19:37:17;28.00;53.70
29775;DHT22;16676;51.202;6.774;2022-08-19T19:41:21;28.00;53.80
29775;DHT22;16676;51.202;6.774;2022-08-19T19:45:24;28.00;53.70
29775;DHT22;16676;51.202;6.774;2022-08-19T19:49:28;28.00;53.80
29775;DHT22;16676;51.202;6.774;2022-08-19T19:53:33;28.10;53.80
29775;DHT22;16676;51.202;6.774;2022-08-19T19:57:34;28.10;53.80
29775;DHT22;16676;51.202;6.774;2022-08-19T20:01:39;28.10;54.00
29775;DHT22;16676;51.202;6.774;2022-08-19T20:05:47;28.10;54.10
29775;DHT22;16676;51.202;6.774;2022-08-19T20:09:49;28.10;54.20
29775;DHT22;16676;51.202;6.774;2022-08-19T20:13:51;28.10;54.50
29775;DHT22;16676;51.202;6.774;2022-08-19T20:17:53;28.10;54.40
29775;DHT22;16676;51.202;6.774;2022-08-19T20:21:56;28.00;54.40
29775;DHT22;16676;51.202;6.774;2022-08-19T20:25:58;28.10;54.30
29775;DHT22;16676;51.202;6.774;2022-08-19T20:30:00;28.00;54.30
29775;DHT22;16676;51.202;6.774;2022-08-19T20:34:04;28.00;54.30
29775;DHT22;16676;51.202;6.774;2022-08-19T20:38:08;28.00;54.40
29775;DHT22;16676;51.202;6.774;2022-08-19T20:42:10;27.90;54.20
29775;DHT22;16676;51.202;6.774;2022-08-19T20:46:12;27.90;54.40
29775;DHT22;16676;51.202;6.774;2022-08-19T20:50:15;27.90;54.50
29775;DHT22;16676;51.202;6.774;2022-08-19T20:54:18;27.90;54.70
29775;DHT22;16676;51.202;6.774;2022-08-19T20:58:22;27.80;54.80
29775;DHT22;16676;51.202;6.774;2022-08-19T21:02:24;27.80;54.90
29775;DHT22;16676;51.202;6.774;2022-08-19T21:06:26;27.80;55.00
29775;DHT22;16676;51.202;6.774;2022-08-19T21:10:29;27.80;55.10
29775;DHT22;16676;51.202;6.774;2022-08-19T21:14:31;27.80;55.30
29775;DHT22;16676;51.202;6.774;2022-08-19T21:18:34;27.80;55.70
29775;DHT22;16676;51.202;6.774;2022-08-19T21:22:36;27.70;55.90
29775;DHT22;16676;51.202;6.774;2022-08-19T21:26:40;27.70;55.90
29775;DHT22;16676;51.202;6.774;2022-08-19T21:30:41;27.70;56.00
29775;DHT22;16676;51.202;6.774;2022-08-19T21:34:43;27.80;56.20
29775;DHT22;16676;51.202;6.774;2022-08-19T21:38:46;27.70;56.20
29775;DHT22;16676;51.202;6.774;2022-08-19T21:42:50;27.80;56.20
29775;DHT22;16676;51.202;6.774;2022-08-19T21:46:51;27.80;56.20
29775;DHT22;16676;51.202;6.774;2022-08-19T21:50:53;27.80;56.40
29775;DHT22;16676;51.202;6.774;2022-08-19T21:54:55;27.80;56.50
29775;DHT22;16676;51.202;6.774;2022-08-19T21:58:58;27.80;56.70
29775;DHT22;16676;51.202;6.774;2022-08-19T22:03:01;27.80;56.90
29775;DHT22;16676;51.202;6.774;2022-08-19T22:07:03;27.80;56.90
29775;DHT22;16676;51.202;6.774;2022-08-19T22:11:08;27.70;56.90
29775;DHT22;16676;51.202;6.774;2022-08-19T22:15:13;27.70;57.20
29775;DHT22;16676;51.202;6.774;2022-08-19T22:19:15;27.70;57.20
29775;DHT22;16676;51.202;6.774;2022-08-19T22:23:18;27.70;57.10
29775;DHT22;16676;51.202;6.774;2022-08-19T22:27:20;27.70;57.30
29775;DHT22;16676;51.202;6.774;2022-08-19T22:31:23;27.70;57.40
29775;DHT22;16676;51.202;6.774;2022-08-19T22:35:26;27.80;57.50
29775;DHT22;16676;51.202;6.774;2022-08-19T22:39:30;27.70;57.60
29775;DHT22;16676;51.202;6.774;2022-08-19T22:43:32;27.70;57.70
29775;DHT22;16676;51.202;6.774;2022-08-19T22:47:37;27.70;57.80
29775;DHT22;16676;51.202;6.774;2022-08-19T22:51:39;27.70;57.80
29775;DHT22;16676;51.202;6.774;2022-08-19T22:55:58;27.70;57.80
29775;DHT22;16676;51.202;6.774;2022-08-19T23:00:00;27.70;57.80
29775;DHT22;16676;51.202;6.774;2022-08-19T23:04:03;27.70;57.90
29775;DHT22;16676;51.202;6.774;2022-08-19T23:08:05;27.70;57.80
29775;DHT22;16676;51.202;6.774;2022-08-19T23:12:08;27.70;57.90
29775;DHT22;16676;51.202;6.774;2022-08-19T23:16:12;27.60;58.00
29775;DHT22;16676;51.202;6.774;2022-08-19T23:20:16;27.70;58.10
29775;DHT22;16676;51.202;6.774;2022-08-19T23:24:18;27.60;58.10
29775;DHT22;16676;51.202;6.774;2022-08-19T23:28:20;27.60;58.20
29775;DHT22;16676;51.202;6.774;2022-08-19T23:32:40;27.60;58.30
29775;DHT22;16676;51.202;6.774;2022-08-19T23:36:43;27.60;58.30
29775;DHT22;16676;51.202;6.774;2022-08-19T23:40:45;27.60;58.30
29775;DHT22;16676;51.202;6.774;2022-08-19T23:44:47;27.60;58.80
29775;DHT22;16676;51.202;6.774;2022-08-19T23:48:50;27.60;58.30
29775;DHT22;16676;51.202;6.774;2022-08-19T23:52:55;27.60;58.30
29775;DHT22;16676;51.202;6.774;2022-08-19T23:56:57;27.60;58.40
